TAF and METAR

METAR for Balmaceda Airport

SCBA 192100Z 29020KT CAVOK 20/M03 Q1009
Report created 19. okt 23:00
wind 20 knots from WNW (290°) Clear sky Temperature 20° with dewpoint at -3° (Humidity 20.99%) Pressure 1009 hPa

TAF for Balmaceda Airport

TAF SCBA 191637Z 1918/2018 30020KT CAVOK TX20/1919Z TN01/2010Z BECMG 1922/1924 30010KT BECMG 2006/2008 9999 FEW035 BECMG 2010/2012 30020KT SCT035 BKN050 TEMPO 2015/2018 8000 -SHRA BKN040
Report created 19. okt 18:37

between 19. okt 20:00 - 20. okt 20:00

wind 20 knots from WNW (300°) Clear sky Max temperature 20° expected today at around 21 o'clock Min temperature 01° expected tomorrow at around 12 o'clock

becoming between 20. okt 00:00 - 19. okt 02:00

wind 10 knots from WNW (300°)

becoming between 20. okt 08:00 - 20. okt 10:00

visibility > 10km some clouds (~25% cover) at 3500 feet

becoming between 20. okt 12:00 - 20. okt 14:00

wind 20 knots from WNW (300°) scattered clouds (~50% cover) at 3500 feet broken clouds (~75% cover) at 5000 feet

temporarily between 20. okt 17:00 - 20. okt 20:00

visibility 8000 meters light rain showers broken clouds (~75% cover) at 4000 feet